createdAt,value
2022-11-09T00:00:50.930Z,11.90
2022-11-09T00:03:18.361Z,11.90
2022-11-09T00:05:55.373Z,11.90
2022-11-09T00:08:22.148Z,11.90
2022-11-09T00:10:49.071Z,11.90
2022-11-09T00:13:15.941Z,11.90
2022-11-09T00:15:42.946Z,11.90
2022-11-09T00:18:09.747Z,11.90
2022-11-09T00:20:36.523Z,11.90
2022-11-09T00:23:03.328Z,11.90
2022-11-09T00:25:31.163Z,11.90
2022-11-09T00:27:57.958Z,11.90
2022-11-09T00:30:27.616Z,11.90
2022-11-09T00:32:55.137Z,11.90
2022-11-09T00:35:21.995Z,11.80
2022-11-09T00:37:48.895Z,11.90
2022-11-09T00:40:15.998Z,11.80
2022-11-09T00:42:42.832Z,11.80
2022-11-09T00:45:10.137Z,11.80
2022-11-09T00:47:37.219Z,11.80
2022-11-09T00:50:04.931Z,11.80
2022-11-09T00:52:31.803Z,11.80
2022-11-09T00:54:58.695Z,11.90
2022-11-09T00:57:25.530Z,11.90
2022-11-09T00:59:53.680Z,11.90
2022-11-09T01:02:20.444Z,11.90
2022-11-09T01:04:47.273Z,11.90
2022-11-09T01:07:14.174Z,11.90
2022-11-09T01:09:41.045Z,12.00
2022-11-09T01:12:07.826Z,12.00
2022-11-09T01:14:34.672Z,12.00
2022-11-09T01:17:03.147Z,11.90
2022-11-09T01:19:30.170Z,11.90
2022-11-09T01:21:57.018Z,11.90
2022-11-09T01:24:23.876Z,11.90
2022-11-09T01:26:50.670Z,11.90
2022-11-09T01:29:17.478Z,11.80
2022-11-09T01:31:45.987Z,11.80
2022-11-09T01:34:12.832Z,11.80
2022-11-09T01:36:39.594Z,11.80
2022-11-09T01:39:06.575Z,11.80
2022-11-09T01:41:33.389Z,11.80
2022-11-09T01:44:13.770Z,11.80
2022-11-09T01:46:55.547Z,11.80
2022-11-09T01:49:40.941Z,11.90
2022-11-09T01:52:17.860Z,11.90
2022-11-09T01:54:46.303Z,11.90
2022-11-09T01:57:18.252Z,12.00
2022-11-09T01:59:47.784Z,11.90
2022-11-09T02:02:14.675Z,11.90
2022-11-09T02:04:50.039Z,11.90
2022-11-09T02:07:17.143Z,11.80
2022-11-09T02:09:49.520Z,11.80
2022-11-09T02:12:16.985Z,11.80
2022-11-09T02:14:46.203Z,11.70
2022-11-09T02:17:13.000Z,11.70
2022-11-09T02:19:39.903Z,11.70
2022-11-09T02:22:06.720Z,11.70
2022-11-09T02:24:33.585Z,11.60
2022-11-09T02:27:00.492Z,11.60
2022-11-09T02:29:32.901Z,11.60
2022-11-09T02:32:01.698Z,11.60
2022-11-09T02:34:29.948Z,11.70
2022-11-09T02:36:57.838Z,11.70
2022-11-09T02:39:26.141Z,11.70
2022-11-09T02:42:14.626Z,11.70
2022-11-09T02:44:48.069Z,11.80
2022-11-09T02:47:15.270Z,11.80
2022-11-09T02:49:42.863Z,11.80
2022-11-09T02:52:09.961Z,11.80
2022-11-09T02:54:36.894Z,11.80
2022-11-09T02:57:04.849Z,11.80
2022-11-09T02:59:32.847Z,11.90
2022-11-09T03:02:02.873Z,11.90
2022-11-09T03:04:31.103Z,11.90
2022-11-09T03:06:58.413Z,12.00
2022-11-09T03:09:25.637Z,12.00
2022-11-09T03:11:52.600Z,12.00
2022-11-09T03:14:21.024Z,12.00
2022-11-09T03:16:53.880Z,12.00
2022-11-09T03:19:21.091Z,12.00
2022-11-09T03:21:51.022Z,12.00
2022-11-09T03:24:22.180Z,12.00
2022-11-09T03:26:49.820Z,12.00
2022-11-09T03:29:16.607Z,11.90
2022-11-09T03:31:43.444Z,11.90
2022-11-09T03:34:10.791Z,11.80
2022-11-09T03:36:38.859Z,11.70
2022-11-09T03:39:05.646Z,11.70
2022-11-09T03:41:33.209Z,11.60
2022-11-09T03:44:00.050Z,11.60
2022-11-09T03:46:27.362Z,11.60
2022-11-09T03:48:55.287Z,11.60
2022-11-09T03:51:22.026Z,11.60
2022-11-09T03:53:48.846Z,11.50
2022-11-09T03:56:15.637Z,11.50
2022-11-09T03:58:42.374Z,11.50
2022-11-09T04:01:09.190Z,11.50
2022-11-09T04:03:35.987Z,11.50
2022-11-09T04:06:02.785Z,11.50
2022-11-09T04:08:29.671Z,11.40
2022-11-09T04:10:56.463Z,11.50
2022-11-09T04:13:23.227Z,11.50
2022-11-09T04:15:50.035Z,11.60
2022-11-09T04:18:17.092Z,11.60
2022-11-09T04:20:43.895Z,11.60
2022-11-09T04:23:12.393Z,11.60
2022-11-09T04:25:40.276Z,11.60
2022-11-09T04:28:07.630Z,11.60
2022-11-09T04:30:35.381Z,11.60
2022-11-09T04:33:02.283Z,11.50
2022-11-09T04:35:29.643Z,11.50
2022-11-09T04:38:01.975Z,11.60
2022-11-09T04:40:30.038Z,11.60
2022-11-09T04:42:59.454Z,11.60
2022-11-09T04:45:26.328Z,11.60
2022-11-09T04:48:00.922Z,11.60
2022-11-09T04:50:29.388Z,11.60
2022-11-09T04:52:56.262Z,11.50
2022-11-09T04:55:23.073Z,11.50
2022-11-09T04:57:49.863Z,11.50
2022-11-09T05:00:16.829Z,11.50
2022-11-09T05:02:43.587Z,11.50
2022-11-09T05:05:10.340Z,11.50
2022-11-09T05:07:37.333Z,11.50
2022-11-09T05:10:04.266Z,11.50
2022-11-09T05:12:31.148Z,11.50
2022-11-09T05:14:57.920Z,11.50
2022-11-09T05:17:24.690Z,11.50
2022-11-09T05:19:55.950Z,11.50
2022-11-09T05:22:49.323Z,11.40
2022-11-09T05:25:16.132Z,11.30
2022-11-09T05:27:42.933Z,11.20
2022-11-09T05:30:10.144Z,11.10
2022-11-09T05:32:39.151Z,11.10
2022-11-09T05:35:06.498Z,11.10
2022-11-09T05:37:33.243Z,11.00
2022-11-09T05:40:02.569Z,11.00
2022-11-09T05:42:29.293Z,11.00
2022-11-09T05:44:56.089Z,11.00
2022-11-09T05:47:22.942Z,11.00
2022-11-09T05:49:49.863Z,11.00
2022-11-09T05:52:16.608Z,11.00
2022-11-09T05:54:43.468Z,11.00
2022-11-09T05:57:10.261Z,10.90
2022-11-09T05:59:37.103Z,10.90
2022-11-09T06:02:04.014Z,10.90
2022-11-09T06:04:30.923Z,10.90
2022-11-09T06:06:58.411Z,10.90
2022-11-09T06:09:25.250Z,10.90
2022-11-09T06:11:52.155Z,10.90
2022-11-09T06:14:18.911Z,10.80
2022-11-09T06:16:45.978Z,10.80
2022-11-09T06:19:12.745Z,10.80
2022-11-09T06:21:39.485Z,10.80
2022-11-09T06:24:06.586Z,10.80
2022-11-09T06:26:33.375Z,10.80
2022-11-09T06:29:00.121Z,10.80
2022-11-09T06:31:27.185Z,10.70
2022-11-09T06:33:53.964Z,10.70
2022-11-09T06:36:20.823Z,10.70
2022-11-09T06:38:51.613Z,10.70
2022-11-09T06:41:18.617Z,10.70
2022-11-09T06:43:46.166Z,10.70
2022-11-09T06:46:13.095Z,10.70
2022-11-09T06:48:39.918Z,10.70
2022-11-09T06:51:06.949Z,10.70
2022-11-09T06:53:37.761Z,10.70
2022-11-09T06:56:05.076Z,10.70
2022-11-09T06:58:32.201Z,10.70
2022-11-09T07:00:59.304Z,10.70
2022-11-09T07:03:26.418Z,10.70
2022-11-09T07:05:53.359Z,10.70
2022-11-09T07:08:20.157Z,10.70
2022-11-09T07:10:46.960Z,10.80
2022-11-09T07:13:13.886Z,10.80
2022-11-09T07:15:40.818Z,10.80
2022-11-09T07:18:08.707Z,10.80
2022-11-09T07:20:35.530Z,10.80
2022-11-09T07:23:02.289Z,10.90
2022-11-09T07:25:29.152Z,10.90
2022-11-09T07:27:55.914Z,11.00
2022-11-09T07:30:22.731Z,11.00
2022-11-09T07:35:36.195Z,11.30
2022-11-09T07:38:02.941Z,11.50
2022-11-09T07:40:30.007Z,11.60
2022-11-09T07:43:00.907Z,11.60
2022-11-09T07:45:31.593Z,11.60
2022-11-09T07:47:59.949Z,11.50
2022-11-09T07:50:26.875Z,11.40
2022-11-09T07:52:55.789Z,11.30
2022-11-09T07:55:23.218Z,11.20
2022-11-09T07:57:54.439Z,11.10
2022-11-09T08:00:23.816Z,11.00
2022-11-09T08:02:50.914Z,11.00
2022-11-09T08:05:18.124Z,11.00
2022-11-09T08:07:44.895Z,11.00
2022-11-09T08:10:11.662Z,11.00
2022-11-09T08:12:38.415Z,11.00
2022-11-09T08:15:06.110Z,11.00
2022-11-09T08:17:32.974Z,11.10
2022-11-09T08:19:59.741Z,11.10
2022-11-09T08:22:26.519Z,11.20
2022-11-09T08:24:53.297Z,11.30
2022-11-09T08:27:20.076Z,11.40
2022-11-09T08:29:46.823Z,11.50
2022-11-09T08:32:13.592Z,11.60
2022-11-09T08:34:40.409Z,11.70
2022-11-09T08:37:07.194Z,11.80
2022-11-09T08:39:34.024Z,11.90
2022-11-09T08:42:00.833Z,11.90
2022-11-09T08:44:27.659Z,12.00
2022-11-09T08:46:54.506Z,12.00
2022-11-09T08:49:21.338Z,12.00
2022-11-09T08:51:48.108Z,12.00
2022-11-09T08:54:15.165Z,11.90
2022-11-09T08:56:42.022Z,12.00
2022-11-09T08:59:08.752Z,12.10
2022-11-09T09:01:35.562Z,12.10
2022-11-09T09:04:02.362Z,12.20
2022-11-09T09:06:31.362Z,12.30
2022-11-09T09:08:58.416Z,12.40
2022-11-09T09:11:25.317Z,12.50
2022-11-09T09:13:52.122Z,12.60
2022-11-09T09:16:18.940Z,12.70
2022-11-09T09:18:47.965Z,12.70
2022-11-09T09:21:15.801Z,12.70
2022-11-09T09:23:43.202Z,12.70
2022-11-09T09:26:10.154Z,12.70
2022-11-09T09:28:38.070Z,12.80
2022-11-09T09:31:05.269Z,12.80
2022-11-09T09:33:33.119Z,12.80
2022-11-09T10:14:59.345Z,12.70
2022-11-09T10:17:54.428Z,13.40
2022-11-09T10:20:39.448Z,13.50
2022-11-09T10:23:09.362Z,13.70
2022-11-09T10:26:02.252Z,13.80
2022-11-09T10:28:27.221Z,14.00
2022-11-09T10:30:54.285Z,14.10
2022-11-09T10:33:21.502Z,14.20
2022-11-09T10:36:07.996Z,14.30
2022-11-09T10:38:42.226Z,14.50
2022-11-09T10:41:38.314Z,14.60
2022-11-09T10:44:23.731Z,14.80
2022-11-09T10:47:17.174Z,14.90
2022-11-09T10:50:28.894Z,15.00
2022-11-09T10:53:19.185Z,15.00
2022-11-09T10:56:04.817Z,15.00
2022-11-09T10:58:54.258Z,14.90
2022-11-09T11:01:39.647Z,14.70
2022-11-09T11:04:25.784Z,14.70
2022-11-09T11:07:20.595Z,14.90
2022-11-09T11:10:13.428Z,15.00
2022-11-09T11:13:01.570Z,15.10
2022-11-09T11:15:47.536Z,15.20
2022-11-09T11:18:34.031Z,15.40
2022-11-09T11:21:23.559Z,15.50
2022-11-09T11:24:12.238Z,15.70
2022-11-09T11:27:00.495Z,15.90
2022-11-09T11:30:06.358Z,16.10
2022-11-09T11:32:51.842Z,16.10
2022-11-09T11:35:48.891Z,16.10
2022-11-09T11:39:06.547Z,16.00
2022-11-09T11:42:03.927Z,16.30
2022-11-09T11:48:30.196Z,16.90
2022-11-09T11:51:21.564Z,16.60
2022-11-09T11:54:17.383Z,16.50
2022-11-09T11:57:17.283Z,16.60
2022-11-09T12:00:23.215Z,16.80
2022-11-09T12:03:17.224Z,17.10
2022-11-09T12:06:17.538Z,17.20
2022-11-09T12:09:12.062Z,17.20
2022-11-09T12:12:19.553Z,17.00
2022-11-09T12:15:35.268Z,17.00
2022-11-09T12:18:38.809Z,17.30
2022-11-09T12:21:45.271Z,17.20
2022-11-09T12:24:58.672Z,17.20
2022-11-09T12:27:56.182Z,17.50
2022-11-09T12:31:03.260Z,17.40
2022-11-09T12:34:05.625Z,17.40
2022-11-09T12:37:03.275Z,17.50
2022-11-09T12:39:52.303Z,17.30
2022-11-09T12:43:12.144Z,17.00
2022-11-09T12:45:57.705Z,17.00
2022-11-09T12:48:43.029Z,17.00
2022-11-09T12:51:28.622Z,17.50
2022-11-09T12:54:14.182Z,17.80
2022-11-09T12:57:04.790Z,17.80
2022-11-09T12:59:53.293Z,17.70
2022-11-09T13:02:56.044Z,17.40
2022-11-09T13:05:43.023Z,17.60
2022-11-09T13:08:32.083Z,18.10
2022-11-09T13:11:43.761Z,18.60
2022-11-09T13:14:34.442Z,19.00
2022-11-09T13:17:29.020Z,19.50
2022-11-09T13:24:00.161Z,19.40
2022-11-09T13:26:46.534Z,19.30
2022-11-09T13:29:41.259Z,19.30
2022-11-09T13:32:33.133Z,19.70
2022-11-09T13:35:40.604Z,19.70
2022-11-09T13:38:26.828Z,19.60
2022-11-09T13:41:31.809Z,19.80
2022-11-09T13:44:23.173Z,19.90
2022-11-09T13:47:21.660Z,19.90
2022-11-09T13:50:27.247Z,19.80
2022-11-09T13:53:31.688Z,19.90
2022-11-09T13:56:43.325Z,19.70
2022-11-09T13:59:33.991Z,19.10
2022-11-09T14:02:20.847Z,18.80
2022-11-09T14:05:06.780Z,18.80
2022-11-09T14:07:53.181Z,18.60
2022-11-09T14:11:06.836Z,18.30
2022-11-09T14:14:23.667Z,17.90
2022-11-09T14:17:31.440Z,17.70
2022-11-09T14:20:22.674Z,17.50
2022-11-09T14:23:18.812Z,17.50
2022-11-09T14:26:08.687Z,17.40
2022-11-09T14:28:54.065Z,17.20
2022-11-09T14:31:45.483Z,17.10
2022-11-09T14:34:31.338Z,16.80
2022-11-09T14:37:16.781Z,16.50
2022-11-09T14:40:02.302Z,16.40
2022-11-09T14:42:49.468Z,16.40
2022-11-09T14:45:34.959Z,16.30
2022-11-09T14:48:22.670Z,16.40
2022-11-09T14:51:12.236Z,16.60
2022-11-09T14:53:58.294Z,16.60
2022-11-09T14:56:43.671Z,16.60
2022-11-09T14:59:31.861Z,16.60
2022-11-09T15:02:21.292Z,16.60
2022-11-09T15:05:07.075Z,16.50
2022-11-09T15:07:52.562Z,16.30
2022-11-09T15:10:38.346Z,16.10
2022-11-09T15:13:34.204Z,16.00
2022-11-09T15:16:24.985Z,15.80
2022-11-09T15:19:33.269Z,15.50
2022-11-09T15:22:37.291Z,15.40
2022-11-09T15:25:25.513Z,15.20
2022-11-09T15:28:14.185Z,15.10
2022-11-09T15:30:59.415Z,15.00
2022-11-09T15:33:53.062Z,14.80
2022-11-09T15:36:42.020Z,14.70
2022-11-09T15:39:30.139Z,14.60
2022-11-09T15:42:16.355Z,14.60
2022-11-09T15:45:02.050Z,14.50
2022-11-09T15:47:55.279Z,14.40
2022-11-09T15:50:40.537Z,14.30
2022-11-09T15:53:26.168Z,14.20
2022-11-09T15:56:22.337Z,14.10
2022-11-09T15:59:12.779Z,14.00
2022-11-09T16:01:58.161Z,13.90
2022-11-09T16:04:43.463Z,13.80
2022-11-09T16:07:29.122Z,13.70
2022-11-09T16:10:14.765Z,13.70
2022-11-09T16:13:00.175Z,13.60
2022-11-09T16:15:45.351Z,13.50
2022-11-09T16:18:31.339Z,13.40
2022-11-09T16:21:17.257Z,13.30
2022-11-09T16:24:02.763Z,13.30
2022-11-09T16:26:48.167Z,13.20
2022-11-09T16:29:33.820Z,13.20
2022-11-09T16:32:19.167Z,13.10
2022-11-09T16:38:10.540Z,13.00
2022-11-09T16:40:55.724Z,13.00
2022-11-09T16:43:41.271Z,12.90
2022-11-09T16:46:27.928Z,12.90
2022-11-09T16:49:13.411Z,12.80
2022-11-09T16:51:58.706Z,12.80
2022-11-09T16:54:44.201Z,12.80
2022-11-09T16:57:29.724Z,12.80
2022-11-09T17:00:15.833Z,12.70
2022-11-09T17:03:04.468Z,12.70
2022-11-09T17:05:49.747Z,12.70
2022-11-09T17:08:35.399Z,12.70
2022-11-09T17:11:20.867Z,12.70
2022-11-09T17:14:06.734Z,12.70
2022-11-09T17:16:51.920Z,12.70
2022-11-09T17:19:37.390Z,12.60
2022-11-09T17:22:22.657Z,12.60
2022-11-09T17:25:08.629Z,12.60
2022-11-09T17:27:54.331Z,12.50
2022-11-09T17:30:40.479Z,12.50
2022-11-09T17:33:25.807Z,12.40
2022-11-09T17:36:12.240Z,12.40
2022-11-09T17:38:57.527Z,12.40
2022-11-09T17:41:43.181Z,12.40
2022-11-09T17:44:28.612Z,12.30
2022-11-09T17:47:14.204Z,12.30
2022-11-09T17:49:59.748Z,12.20
2022-11-09T17:52:45.228Z,12.20
2022-11-09T17:55:30.783Z,12.10
2022-11-09T17:58:16.666Z,12.10
2022-11-09T18:01:10.275Z,12.10
2022-11-09T18:03:55.966Z,12.10
2022-11-09T18:06:41.700Z,12.10
2022-11-09T18:09:40.716Z,12.10
2022-11-09T18:12:27.409Z,12.10
2022-11-09T18:15:12.800Z,12.00
2022-11-09T18:17:58.305Z,12.00
2022-11-09T18:20:43.564Z,12.00
2022-11-09T18:23:28.742Z,11.90
2022-11-09T18:26:14.242Z,11.90
2022-11-09T18:28:59.313Z,11.90
2022-11-09T18:31:44.728Z,11.90
2022-11-09T18:34:30.274Z,11.90
2022-11-09T18:37:15.857Z,11.90
2022-11-09T18:40:01.261Z,12.00
2022-11-09T18:42:46.752Z,12.00
2022-11-09T18:45:34.570Z,12.00
2022-11-09T18:48:20.242Z,12.00
2022-11-09T18:51:06.802Z,12.10
2022-11-09T18:53:52.382Z,12.10
2022-11-09T18:56:37.592Z,12.10
2022-11-09T18:59:23.212Z,12.10
2022-11-09T19:02:12.589Z,12.10
2022-11-09T19:04:57.787Z,12.20
2022-11-09T19:07:43.187Z,12.20
2022-11-09T19:10:28.810Z,12.10
2022-11-09T19:13:14.156Z,12.10
2022-11-09T19:15:59.675Z,12.10
2022-11-09T19:18:45.176Z,12.10
2022-11-09T19:21:41.385Z,12.10
2022-11-09T19:24:28.553Z,12.00
2022-11-09T19:27:13.783Z,12.00
2022-11-09T19:29:58.945Z,12.10
2022-11-09T19:32:44.457Z,12.00
2022-11-09T19:35:33.772Z,12.10
2022-11-09T19:38:19.861Z,12.10
2022-11-09T19:41:05.797Z,12.00
2022-11-09T19:43:54.518Z,12.00
2022-11-09T19:46:40.450Z,12.00
2022-11-09T19:49:25.694Z,12.00
2022-11-09T19:52:11.174Z,11.90
2022-11-09T19:54:56.477Z,11.90
2022-11-09T19:57:42.004Z,11.80
2022-11-09T20:00:27.404Z,11.80
2022-11-09T20:03:12.796Z,11.80
2022-11-09T20:05:58.414Z,11.70
2022-11-09T20:08:43.606Z,11.70
2022-11-09T20:11:47.384Z,11.70
2022-11-09T20:14:32.585Z,11.80
2022-11-09T20:17:17.822Z,11.80
2022-11-09T20:20:03.648Z,11.80
2022-11-09T20:22:49.341Z,11.80
2022-11-09T20:25:34.861Z,11.80
2022-11-09T20:28:20.829Z,11.80
2022-11-09T20:31:13.228Z,11.70
2022-11-09T20:34:00.800Z,11.70
2022-11-09T20:36:46.463Z,11.70
2022-11-09T20:39:32.531Z,11.70
2022-11-09T20:42:18.149Z,11.70
2022-11-09T20:45:04.659Z,11.70
2022-11-09T20:48:07.735Z,11.70
2022-11-09T20:50:55.783Z,11.70
2022-11-09T20:53:41.334Z,11.70
2022-11-09T20:56:26.927Z,11.70
2022-11-09T20:59:12.137Z,11.70
2022-11-09T21:01:57.617Z,11.70
2022-11-09T21:04:43.189Z,11.70
2022-11-09T21:07:28.901Z,11.70
2022-11-09T21:10:14.540Z,11.70
2022-11-09T21:12:59.749Z,11.70
2022-11-09T21:15:45.576Z,11.70
2022-11-09T21:18:31.002Z,11.70
2022-11-09T21:21:23.566Z,11.70
2022-11-09T21:24:29.807Z,11.70
2022-11-09T21:27:33.834Z,11.70
2022-11-09T21:30:19.558Z,11.70
2022-11-09T21:33:04.630Z,11.70
2022-11-09T21:35:50.172Z,11.70
2022-11-09T21:38:35.848Z,11.70
2022-11-09T21:41:39.297Z,11.60
2022-11-09T21:44:25.121Z,11.60
2022-11-09T21:47:10.203Z,11.60
2022-11-09T21:49:55.581Z,11.60
2022-11-09T21:52:40.999Z,11.60
2022-11-09T21:55:26.645Z,11.60
2022-11-09T21:58:12.309Z,11.50
2022-11-09T22:01:06.730Z,11.50
2022-11-09T22:03:51.932Z,11.50
2022-11-09T22:06:38.994Z,11.50
2022-11-09T22:09:24.579Z,11.50
2022-11-09T22:12:28.236Z,11.50
2022-11-09T22:15:32.456Z,11.40
2022-11-09T22:18:36.866Z,11.40
2022-11-09T22:21:23.221Z,11.40
2022-11-09T22:24:09.121Z,11.40
2022-11-09T22:26:54.519Z,11.40
2022-11-09T22:29:40.104Z,11.60
2022-11-09T22:32:25.543Z,11.80
2022-11-09T22:35:11.099Z,11.90
2022-11-09T22:38:01.291Z,11.90
2022-11-09T22:40:46.419Z,11.90
2022-11-09T22:43:35.893Z,11.90
2022-11-09T22:46:24.667Z,11.90
2022-11-09T22:49:11.799Z,11.90
2022-11-09T22:51:56.908Z,12.00
2022-11-09T22:54:42.668Z,12.10
2022-11-09T22:57:28.584Z,12.10
2022-11-09T23:00:15.649Z,12.00
2022-11-09T23:03:01.149Z,11.90
2022-11-09T23:05:47.990Z,11.80
2022-11-09T23:08:37.743Z,11.70
2022-11-09T23:11:23.713Z,11.60
2022-11-09T23:14:08.912Z,11.50
2022-11-09T23:16:54.552Z,11.40
2022-11-09T23:19:40.153Z,11.30
2022-11-09T23:22:27.043Z,11.20
2022-11-09T23:25:31.477Z,11.10
2022-11-09T23:28:17.610Z,11.00
2022-11-09T23:31:09.187Z,11.00
2022-11-09T23:33:57.973Z,10.90
2022-11-09T23:36:43.282Z,10.90
2022-11-09T23:39:28.949Z,10.90
2022-11-09T23:42:13.962Z,10.90
2022-11-09T23:44:59.563Z,10.80
2022-11-09T23:47:44.955Z,10.80
2022-11-09T23:50:30.645Z,10.80
2022-11-09T23:53:16.285Z,10.80
2022-11-09T23:56:06.466Z,10.80
2022-11-09T23:58:52.051Z,10.80
